sensor_id;sensor_type;location;lat;lon;timestamp;pressure;altitude;pressure_sealevel;temperature;humidity
6851;BME280;3464;42.728;23.296;2022-09-19T00:02:19;95348.05;;;13.12;66.07
6851;BME280;3464;42.728;23.296;2022-09-19T00:04:45;95348.90;;;13.02;66.42
6851;BME280;3464;42.728;23.296;2022-09-19T00:07:12;95342.16;;;13.00;66.15
6851;BME280;3464;42.728;23.296;2022-09-19T00:09:39;95349.73;;;13.07;65.93
6851;BME280;3464;42.728;23.296;2022-09-19T00:12:05;95345.07;;;12.83;66.79
6851;BME280;3464;42.728;23.296;2022-09-19T00:14:34;95345.48;;;12.78;67.15
6851;BME280;3464;42.728;23.296;2022-09-19T00:17:00;95338.31;;;12.86;66.50
6851;BME280;3464;42.728;23.296;2022-09-19T00:19:26;95334.52;;;12.79;66.52
6851;BME280;3464;42.728;23.296;2022-09-19T00:21:53;95339.56;;;12.79;66.41
6851;BME280;3464;42.728;23.296;2022-09-19T00:24:18;95337.05;;;12.72;66.61
6851;BME280;3464;42.728;23.296;2022-09-19T00:26:50;95336.58;;;12.50;67.02
6851;BME280;3464;42.728;23.296;2022-09-19T00:29:17;95327.80;;;12.88;65.95
6851;BME280;3464;42.728;23.296;2022-09-19T00:31:44;95336.59;;;12.61;66.35
6851;BME280;3464;42.728;23.296;2022-09-19T00:34:11;95326.50;;;12.56;66.91
6851;BME280;3464;42.728;23.296;2022-09-19T00:36:37;95334.13;;;12.90;65.70
6851;BME280;3464;42.728;23.296;2022-09-19T00:39:04;95341.70;;;12.87;65.83
6851;BME280;3464;42.728;23.296;2022-09-19T00:41:30;95337.45;;;12.70;66.10
6851;BME280;3464;42.728;23.296;2022-09-19T00:44:01;95342.48;;;12.49;67.01
6851;BME280;3464;42.728;23.296;2022-09-19T00:46:27;95334.94;;;12.71;66.36
6851;BME280;3464;42.728;23.296;2022-09-19T00:48:54;95343.28;;;12.37;67.40
6851;BME280;3464;42.728;23.296;2022-09-19T00:51:22;95346.58;;;12.18;68.39
6851;BME280;3464;42.728;23.296;2022-09-19T00:53:46;95346.68;;;12.57;67.34
6851;BME280;3464;42.728;23.296;2022-09-19T00:56:12;95344.63;;;12.73;66.22
6851;BME280;3464;42.728;23.296;2022-09-19T00:58:40;95337.46;;;12.61;66.92
6851;BME280;3464;42.728;23.296;2022-09-19T01:01:05;95335.35;;;12.72;66.31
6851;BME280;3464;42.728;23.296;2022-09-19T01:03:32;95330.26;;;12.40;67.13
6851;BME280;3464;42.728;23.296;2022-09-19T01:08:54;95324.78;;;12.45;66.52
6851;BME280;3464;42.728;23.296;2022-09-19T01:14:25;95326.91;;;12.52;66.54
6851;BME280;3464;42.728;23.296;2022-09-19T01:16:51;95331.86;;;12.15;67.48
6851;BME280;3464;42.728;23.296;2022-09-19T01:22:17;95334.47;;;12.41;66.31
6851;BME280;3464;42.728;23.296;2022-09-19T01:27:39;95326.89;;;12.49;66.26
6851;BME280;3464;42.728;23.296;2022-09-19T01:30:08;95325.16;;;12.30;66.48
6851;BME280;3464;42.728;23.296;2022-09-19T01:32:36;95320.55;;;12.32;66.41
6851;BME280;3464;42.728;23.296;2022-09-19T01:35:02;95322.70;;;12.51;65.81
6851;BME280;3464;42.728;23.296;2022-09-19T01:37:32;95323.04;;;12.19;66.87
6851;BME280;3464;42.728;23.296;2022-09-19T01:39:58;95326.00;;;12.21;66.62
6851;BME280;3464;42.728;23.296;2022-09-19T01:42:24;95327.63;;;12.10;67.24
6851;BME280;3464;42.728;23.296;2022-09-19T01:44:50;95323.45;;;12.20;66.69
6851;BME280;3464;42.728;23.296;2022-09-19T01:47:27;95322.66;;;12.34;66.26
6851;BME280;3464;42.728;23.296;2022-09-19T01:49:55;95319.27;;;12.28;66.05
6851;BME280;3464;42.728;23.296;2022-09-19T01:52:43;95321.35;;;12.19;66.61
6851;BME280;3464;42.728;23.296;2022-09-19T01:55:29;95318.84;;;12.18;66.96
6851;BME280;3464;42.728;23.296;2022-09-19T01:58:00;95316.78;;;12.40;66.02
6851;BME280;3464;42.728;23.296;2022-09-19T02:00:22;95317.58;;;12.26;66.16
6851;BME280;3464;42.728;23.296;2022-09-19T02:02:55;95321.36;;;12.26;66.09
6851;BME280;3464;42.728;23.296;2022-09-19T02:05:25;95318.84;;;12.20;66.33
6851;BME280;3464;42.728;23.296;2022-09-19T02:07:59;95312.95;;;12.26;65.95
6851;BME280;3464;42.728;23.296;2022-09-19T02:10:23;95317.17;;;12.23;66.11
6851;BME280;3464;42.728;23.296;2022-09-19T02:12:49;95312.17;;;12.43;65.88
6851;BME280;3464;42.728;23.296;2022-09-19T02:15:15;95309.23;;;12.52;65.54
6851;BME280;3464;42.728;23.296;2022-09-19T02:17:43;95308.00;;;12.62;65.43
6851;BME280;3464;42.728;23.296;2022-09-19T02:20:09;95307.55;;;12.46;65.89
6851;BME280;3464;42.728;23.296;2022-09-19T02:22:39;95307.13;;;12.54;65.79
6851;BME280;3464;42.728;23.296;2022-09-19T02:25:06;95300.43;;;12.67;65.64
6851;BME280;3464;42.728;23.296;2022-09-19T02:27:33;95299.14;;;12.63;65.45
6851;BME280;3464;42.728;23.296;2022-09-19T02:29:59;95298.33;;;12.62;65.64
6851;BME280;3464;42.728;23.296;2022-09-19T02:32:25;95287.37;;;12.52;65.53
6851;BME280;3464;42.728;23.296;2022-09-19T02:34:52;95289.88;;;12.54;65.61
6851;BME280;3464;42.728;23.296;2022-09-19T02:39:57;95288.20;;;12.77;65.17
6851;BME280;3464;42.728;23.296;2022-09-19T02:42:46;95290.31;;;12.69;65.06
6851;BME280;3464;42.728;23.296;2022-09-19T02:45:16;95288.64;;;12.63;65.37
6851;BME280;3464;42.728;23.296;2022-09-19T02:48:01;95291.12;;;12.42;65.81
6851;BME280;3464;42.728;23.296;2022-09-19T02:50:29;95304.55;;;12.24;66.37
6851;BME280;3464;42.728;23.296;2022-09-19T02:52:55;95306.19;;;12.13;67.09
6851;BME280;3464;42.728;23.296;2022-09-19T02:55:22;95298.73;;;12.51;66.12
6851;BME280;3464;42.728;23.296;2022-09-19T02:57:48;95297.05;;;12.56;65.79
6851;BME280;3464;42.728;23.296;2022-09-19T03:00:15;95298.72;;;12.53;65.89
6851;BME280;3464;42.728;23.296;2022-09-19T03:02:47;95290.65;;;12.20;66.51
6851;BME280;3464;42.728;23.296;2022-09-19T03:05:14;95299.52;;;12.30;66.28
6851;BME280;3464;42.728;23.296;2022-09-19T03:07:41;95289.85;;;12.41;66.10
6851;BME280;3464;42.728;23.296;2022-09-19T03:10:08;95296.11;;;12.18;66.78
6851;BME280;3464;42.728;23.296;2022-09-19T03:12:43;95297.66;;;11.85;68.31
6851;BME280;3464;42.728;23.296;2022-09-19T03:15:09;95294.14;;;11.56;69.36
6851;BME280;3464;42.728;23.296;2022-09-19T03:17:40;95292.97;;;11.64;68.78
6851;BME280;3464;42.728;23.296;2022-09-19T03:20:07;95295.16;;;11.89;67.86
6851;BME280;3464;42.728;23.296;2022-09-19T03:22:33;95299.42;;;12.05;66.51
6851;BME280;3464;42.728;23.296;2022-09-19T03:25:00;95293.92;;;11.90;66.76
6851;BME280;3464;42.728;23.296;2022-09-19T03:27:26;95298.45;;;11.68;67.62
6851;BME280;3464;42.728;23.296;2022-09-19T03:29:53;95293.48;;;11.85;66.90
6851;BME280;3464;42.728;23.296;2022-09-19T03:32:20;95294.79;;;11.94;66.27
6851;BME280;3464;42.728;23.296;2022-09-19T03:34:46;95291.45;;;12.04;65.75
6851;BME280;3464;42.728;23.296;2022-09-19T03:37:14;95289.33;;;11.98;65.77
6851;BME280;3464;42.728;23.296;2022-09-19T03:39:40;95287.20;;;11.89;65.90
6851;BME280;3464;42.728;23.296;2022-09-19T03:42:07;95285.56;;;12.05;65.87
6851;BME280;3464;42.728;23.296;2022-09-19T03:44:33;95285.96;;;12.03;65.60
6851;BME280;3464;42.728;23.296;2022-09-19T03:47:00;95279.66;;;12.04;66.09
6851;BME280;3464;42.728;23.296;2022-09-19T03:49:27;95282.63;;;12.04;65.54
6851;BME280;3464;42.728;23.296;2022-09-19T03:51:53;95279.69;;;12.13;65.74
6851;BME280;3464;42.728;23.296;2022-09-19T03:54:20;95275.52;;;12.28;65.42
6851;BME280;3464;42.728;23.296;2022-09-19T03:56:46;95266.63;;;12.02;65.65
6851;BME280;3464;42.728;23.296;2022-09-19T03:59:13;95267.06;;;12.10;65.48
6851;BME280;3464;42.728;23.296;2022-09-19T04:01:39;95267.08;;;12.08;65.54
6851;BME280;3464;42.728;23.296;2022-09-19T04:04:06;95266.69;;;12.20;65.40
6851;BME280;3464;42.728;23.296;2022-09-19T04:06:33;95262.03;;;12.09;65.46
6851;BME280;3464;42.728;23.296;2022-09-19T04:08:59;95260.73;;;11.96;65.97
6851;BME280;3464;42.728;23.296;2022-09-19T04:11:27;95267.89;;;11.99;65.78
6851;BME280;3464;42.728;23.296;2022-09-19T04:13:53;95264.98;;;12.08;66.16
6851;BME280;3464;42.728;23.296;2022-09-19T04:16:21;95258.27;;;12.21;65.73
6851;BME280;3464;42.728;23.296;2022-09-19T04:18:47;95259.98;;;12.38;65.28
6851;BME280;3464;42.728;23.296;2022-09-19T04:21:15;95262.53;;;12.52;64.87
6851;BME280;3464;42.728;23.296;2022-09-19T04:23:43;95266.73;;;12.59;64.78
6851;BME280;3464;42.728;23.296;2022-09-19T04:26:10;95273.45;;;12.57;65.05
6851;BME280;3464;42.728;23.296;2022-09-19T04:28:36;95264.64;;;12.84;64.51
6851;BME280;3464;42.728;23.296;2022-09-19T04:31:02;95260.86;;;12.94;64.50
6851;BME280;3464;42.728;23.296;2022-09-19T04:33:29;95261.98;;;13.72;63.73
6851;BME280;3464;42.728;23.296;2022-09-19T04:35:56;95253.56;;;15.06;60.62
6851;BME280;3464;42.728;23.296;2022-09-19T04:38:23;95254.83;;;16.82;59.22
6851;BME280;3464;42.728;23.296;2022-09-19T04:40:50;95252.19;;;17.64;55.96
6851;BME280;3464;42.728;23.296;2022-09-19T04:43:18;95246.41;;;18.94;55.07
6851;BME280;3464;42.728;23.296;2022-09-19T04:45:44;95245.45;;;20.12;51.53
6851;BME280;3464;42.728;23.296;2022-09-19T04:48:10;95244.22;;;21.84;48.37
6851;BME280;3464;42.728;23.296;2022-09-19T04:50:37;95235.73;;;21.94;45.27
6851;BME280;3464;42.728;23.296;2022-09-19T04:53:03;95244.61;;;21.48;45.19
6851;BME280;3464;42.728;23.296;2022-09-19T04:55:30;95241.11;;;21.87;43.98
6851;BME280;3464;42.728;23.296;2022-09-19T04:57:57;95234.23;;;22.90;42.36
6851;BME280;3464;42.728;23.296;2022-09-19T05:00:24;95244.09;;;23.42;42.70
6851;BME280;3464;42.728;23.296;2022-09-19T05:02:55;95242.59;;;23.68;41.05
6851;BME280;3464;42.728;23.296;2022-09-19T05:05:23;95237.33;;;24.93;39.90
6851;BME280;3464;42.728;23.296;2022-09-19T05:07:49;95241.99;;;25.30;38.63
6851;BME280;3464;42.728;23.296;2022-09-19T05:10:16;95245.11;;;25.96;37.64
6851;BME280;3464;42.728;23.296;2022-09-19T05:12:42;95246.09;;;25.68;36.84
6851;BME280;3464;42.728;23.296;2022-09-19T05:15:09;95240.83;;;26.13;36.26
6851;BME280;3464;42.728;23.296;2022-09-19T05:17:37;95244.92;;;26.56;34.61
6851;BME280;3464;42.728;23.296;2022-09-19T05:20:05;95253.27;;;24.84;36.11
6851;BME280;3464;42.728;23.296;2022-09-19T05:22:34;95255.22;;;25.14;35.85
6851;BME280;3464;42.728;23.296;2022-09-19T05:25:05;95254.81;;;26.25;35.16
6851;BME280;3464;42.728;23.296;2022-09-19T05:27:32;95259.34;;;26.69;33.37
6851;BME280;3464;42.728;23.296;2022-09-19T05:30:03;95252.87;;;27.74;33.40
6851;BME280;3464;42.728;23.296;2022-09-19T05:32:30;95259.33;;;27.67;31.40
6851;BME280;3464;42.728;23.296;2022-09-19T05:34:57;95259.09;;;25.23;35.04
6851;BME280;3464;42.728;23.296;2022-09-19T05:37:25;95256.31;;;28.26;31.60
6851;BME280;3464;42.728;23.296;2022-09-19T05:39:52;95259.19;;;26.72;32.75
6851;BME280;3464;42.728;23.296;2022-09-19T05:42:19;95265.85;;;26.83;32.53
6851;BME280;3464;42.728;23.296;2022-09-19T05:44:46;95259.00;;;28.24;31.46
6851;BME280;3464;42.728;23.296;2022-09-19T05:47:13;95259.04;;;26.42;32.68
6851;BME280;3464;42.728;23.296;2022-09-19T05:49:39;95262.03;;;25.34;33.87
6851;BME280;3464;42.728;23.296;2022-09-19T05:52:06;95262.23;;;25.12;34.35
6851;BME280;3464;42.728;23.296;2022-09-19T05:54:38;95257.78;;;27.57;32.26
6851;BME280;3464;42.728;23.296;2022-09-19T05:57:05;95256.09;;;29.45;29.93
6851;BME280;3464;42.728;23.296;2022-09-19T05:59:32;95253.20;;;31.07;28.57
6851;BME280;3464;42.728;23.296;2022-09-19T06:01:58;95250.66;;;30.57;28.63
6851;BME280;3464;42.728;23.296;2022-09-19T06:04:25;95249.58;;;31.20;28.09
6851;BME280;3464;42.728;23.296;2022-09-19T06:06:51;95251.95;;;29.75;28.54
6851;BME280;3464;42.728;23.296;2022-09-19T06:09:18;95251.39;;;31.37;27.27
6851;BME280;3464;42.728;23.296;2022-09-19T06:11:44;95248.38;;;32.68;26.37
6851;BME280;3464;42.728;23.296;2022-09-19T06:14:11;95254.00;;;30.59;27.77
6851;BME280;3464;42.728;23.296;2022-09-19T06:16:40;95256.23;;;30.33;27.85
6851;BME280;3464;42.728;23.296;2022-09-19T06:19:07;95254.05;;;31.00;27.76
6851;BME280;3464;42.728;23.296;2022-09-19T06:21:35;95258.83;;;31.31;26.57
6851;BME280;3464;42.728;23.296;2022-09-19T06:24:02;95253.22;;;29.03;28.74
6851;BME280;3464;42.728;23.296;2022-09-19T06:26:29;95257.36;;;31.38;27.52
6851;BME280;3464;42.728;23.296;2022-09-19T06:28:55;95252.78;;;33.58;25.31
6851;BME280;3464;42.728;23.296;2022-09-19T06:31:22;95255.43;;;30.69;26.97
6851;BME280;3464;42.728;23.296;2022-09-19T06:33:48;95250.24;;;30.56;27.17
6851;BME280;3464;42.728;23.296;2022-09-19T06:36:15;95252.39;;;33.53;25.45
6851;BME280;3464;42.728;23.296;2022-09-19T06:38:41;95245.95;;;34.75;23.99
6851;BME280;3464;42.728;23.296;2022-09-19T06:41:08;95244.06;;;34.11;24.08
6851;BME280;3464;42.728;23.296;2022-09-19T06:43:35;95241.64;;;34.94;23.45
6851;BME280;3464;42.728;23.296;2022-09-19T06:46:02;95244.14;;;33.58;24.93
6851;BME280;3464;42.728;23.296;2022-09-19T06:48:28;95240.52;;;32.52;25.55
6851;BME280;3464;42.728;23.296;2022-09-19T06:50:55;95243.05;;;32.02;25.85
6851;BME280;3464;42.728;23.296;2022-09-19T06:53:21;95244.33;;;29.98;27.45
6851;BME280;3464;42.728;23.296;2022-09-19T06:55:48;95242.95;;;29.01;28.91
6851;BME280;3464;42.728;23.296;2022-09-19T06:58:15;95238.91;;;28.77;29.07
6851;BME280;3464;42.728;23.296;2022-09-19T07:00:41;95249.41;;;28.11;29.57
6851;BME280;3464;42.728;23.296;2022-09-19T07:03:08;95247.34;;;27.21;30.66
6851;BME280;3464;42.728;23.296;2022-09-19T07:05:36;95243.55;;;25.51;32.32
6851;BME280;3464;42.728;23.296;2022-09-19T07:08:01;95243.91;;;25.52;32.76
6851;BME280;3464;42.728;23.296;2022-09-19T07:10:27;95240.89;;;24.54;34.38
6851;BME280;3464;42.728;23.296;2022-09-19T07:12:54;95239.60;;;24.45;34.87
6851;BME280;3464;42.728;23.296;2022-09-19T07:15:21;95233.25;;;24.89;34.42
6851;BME280;3464;42.728;23.296;2022-09-19T07:17:47;95230.66;;;24.81;34.66
6851;BME280;3464;42.728;23.296;2022-09-19T07:20:14;95242.80;;;24.40;35.36
6851;BME280;3464;42.728;23.296;2022-09-19T07:22:41;95242.09;;;24.18;36.05
6851;BME280;3464;42.728;23.296;2022-09-19T07:25:07;95239.83;;;24.31;35.50
6851;BME280;3464;42.728;23.296;2022-09-19T07:27:35;95243.34;;;22.76;37.74
6851;BME280;3464;42.728;23.296;2022-09-19T07:30:01;95233.32;;;23.34;37.74
6851;BME280;3464;42.728;23.296;2022-09-19T07:32:27;95241.75;;;21.82;39.76
6851;BME280;3464;42.728;23.296;2022-09-19T07:34:54;95236.83;;;21.50;40.24
6851;BME280;3464;42.728;23.296;2022-09-19T07:37:20;95231.36;;;21.60;41.03
6851;BME280;3464;42.728;23.296;2022-09-19T07:39:47;95233.59;;;20.79;41.23
6851;BME280;3464;42.728;23.296;2022-09-19T07:42:14;95237.93;;;20.64;41.53
6851;BME280;3464;42.728;23.296;2022-09-19T07:44:40;95237.33;;;20.97;41.62
6851;BME280;3464;42.728;23.296;2022-09-19T07:47:07;95229.84;;;21.30;40.35
6851;BME280;3464;42.728;23.296;2022-09-19T07:49:39;95236.73;;;21.53;40.13
6851;BME280;3464;42.728;23.296;2022-09-19T07:52:05;95234.14;;;21.42;40.60
6851;BME280;3464;42.728;23.296;2022-09-19T07:54:32;95234.11;;;20.77;41.59
6851;BME280;3464;42.728;23.296;2022-09-19T07:56:59;95219.56;;;20.92;41.15
6851;BME280;3464;42.728;23.296;2022-09-19T07:59:27;95218.31;;;21.05;40.97
6851;BME280;3464;42.728;23.296;2022-09-19T08:01:53;95210.73;;;21.02;41.05
6851;BME280;3464;42.728;23.296;2022-09-19T08:04:20;95210.16;;;21.56;40.94
6851;BME280;3464;42.728;23.296;2022-09-19T08:06:46;95215.72;;;21.31;40.02
6851;BME280;3464;42.728;23.296;2022-09-19T08:09:13;95217.05;;;21.66;39.80
6851;BME280;3464;42.728;23.296;2022-09-19T08:11:39;95213.23;;;21.54;39.76
6851;BME280;3464;42.728;23.296;2022-09-19T08:14:06;95211.34;;;21.34;39.94
6851;BME280;3464;42.728;23.296;2022-09-19T08:16:33;95205.00;;;20.94;40.67
6851;BME280;3464;42.728;23.296;2022-09-19T08:19:00;95197.08;;;21.02;40.81
6851;BME280;3464;42.728;23.296;2022-09-19T08:21:27;95204.84;;;21.00;41.00
6851;BME280;3464;42.728;23.296;2022-09-19T08:23:54;95202.88;;;20.67;41.86
6851;BME280;3464;42.728;23.296;2022-09-19T08:26:21;95199.17;;;20.49;41.61
6851;BME280;3464;42.728;23.296;2022-09-19T08:28:48;95202.45;;;19.66;42.83
6851;BME280;3464;42.728;23.296;2022-09-19T08:31:15;95201.05;;;20.16;42.32
6851;BME280;3464;42.728;23.296;2022-09-19T08:33:41;95207.38;;;20.32;42.22
6851;BME280;3464;42.728;23.296;2022-09-19T08:36:09;95198.28;;;20.64;42.25
6851;BME280;3464;42.728;23.296;2022-09-19T08:38:36;95196.28;;;21.00;41.01
6851;BME280;3464;42.728;23.296;2022-09-19T08:41:40;95200.13;;;20.59;41.91
6851;BME280;3464;42.728;23.296;2022-09-19T08:44:18;95191.42;;;20.92;40.99
6851;BME280;3464;42.728;23.296;2022-09-19T08:46:45;95188.92;;;21.04;41.29
6851;BME280;3464;42.728;23.296;2022-09-19T08:49:13;95194.88;;;21.17;40.90
6851;BME280;3464;42.728;23.296;2022-09-19T08:51:49;95191.65;;;20.85;41.29
6851;BME280;3464;42.728;23.296;2022-09-19T08:54:14;95187.41;;;21.60;40.17
6851;BME280;3464;42.728;23.296;2022-09-19T08:56:40;95191.14;;;20.87;41.81
6851;BME280;3464;42.728;23.296;2022-09-19T08:59:14;95185.78;;;21.21;40.74
6851;BME280;3464;42.728;23.296;2022-09-19T09:01:42;95178.30;;;21.64;40.37
6851;BME280;3464;42.728;23.296;2022-09-19T09:04:27;95174.75;;;21.31;40.88
6851;BME280;3464;42.728;23.296;2022-09-19T09:10:05;95171.77;;;21.06;41.96
6851;BME280;3464;42.728;23.296;2022-09-19T09:15:33;95162.95;;;21.27;41.25
6851;BME280;3464;42.728;23.296;2022-09-19T09:23:32;95147.66;;;22.52;38.58
6851;BME280;3464;42.728;23.296;2022-09-19T09:25:59;95147.91;;;21.78;39.83
6851;BME280;3464;42.728;23.296;2022-09-19T09:28:31;95139.33;;;21.67;40.40
6851;BME280;3464;42.728;23.296;2022-09-19T09:31:02;95134.99;;;22.04;39.28
6851;BME280;3464;42.728;23.296;2022-09-19T09:33:35;95118.56;;;21.98;39.49
6851;BME280;3464;42.728;23.296;2022-09-19T09:36:04;95120.31;;;21.73;39.76
6851;BME280;3464;42.728;23.296;2022-09-19T09:38:32;95115.48;;;22.54;38.69
6851;BME280;3464;42.728;23.296;2022-09-19T09:41:04;95117.20;;;22.65;38.99
6851;BME280;3464;42.728;23.296;2022-09-19T09:44:19;95112.98;;;23.25;37.35
6851;BME280;3464;42.728;23.296;2022-09-19T09:49:11;95113.52;;;23.12;37.44
6851;BME280;3464;42.728;23.296;2022-09-19T09:51:53;95101.63;;;23.40;37.40
6851;BME280;3464;42.728;23.296;2022-09-19T09:54:34;95099.80;;;23.61;37.14
6851;BME280;3464;42.728;23.296;2022-09-19T09:57:08;95098.60;;;23.11;37.29
6851;BME280;3464;42.728;23.296;2022-09-19T09:59:38;95095.91;;;23.04;37.52
6851;BME280;3464;42.728;23.296;2022-09-19T10:02:18;95085.84;;;23.67;36.28
6851;BME280;3464;42.728;23.296;2022-09-19T10:08:01;95080.84;;;23.35;36.56
6851;BME280;3464;42.728;23.296;2022-09-19T10:10:42;95083.72;;;23.76;36.15
6851;BME280;3464;42.728;23.296;2022-09-19T10:13:16;95082.79;;;22.90;37.59
6851;BME280;3464;42.728;23.296;2022-09-19T10:15:40;95079.75;;;23.59;36.76
6851;BME280;3464;42.728;23.296;2022-09-19T10:18:11;95081.41;;;23.22;36.15
6851;BME280;3464;42.728;23.296;2022-09-19T10:20:45;95074.39;;;23.65;35.92
6851;BME280;3464;42.728;23.296;2022-09-19T10:23:13;95070.52;;;23.83;35.55
6851;BME280;3464;42.728;23.296;2022-09-19T10:25:49;95067.75;;;23.88;34.95
6851;BME280;3464;42.728;23.296;2022-09-19T10:28:26;95059.16;;;24.43;34.69
6851;BME280;3464;42.728;23.296;2022-09-19T10:31:19;95058.35;;;23.78;35.00
6851;BME280;3464;42.728;23.296;2022-09-19T10:33:49;95051.93;;;24.06;33.89
6851;BME280;3464;42.728;23.296;2022-09-19T10:36:22;95050.67;;;24.49;33.56
6851;BME280;3464;42.728;23.296;2022-09-19T10:42:08;95045.25;;;24.46;34.48
6851;BME280;3464;42.728;23.296;2022-09-19T10:44:33;95038.00;;;23.74;35.38
6851;BME280;3464;42.728;23.296;2022-09-19T10:47:01;95034.94;;;24.47;35.20
6851;BME280;3464;42.728;23.296;2022-09-19T10:49:38;95029.19;;;24.59;33.75
6851;BME280;3464;42.728;23.296;2022-09-19T10:51:59;95022.38;;;24.23;33.52
6851;BME280;3464;42.728;23.296;2022-09-19T10:54:30;95023.05;;;24.44;33.06
6851;BME280;3464;42.728;23.296;2022-09-19T10:56:56;95017.84;;;24.46;33.12
6851;BME280;3464;42.728;23.296;2022-09-19T10:59:30;95015.45;;;24.16;33.18
6851;BME280;3464;42.728;23.296;2022-09-19T11:04:56;95002.05;;;24.44;32.46
6851;BME280;3464;42.728;23.296;2022-09-19T11:07:31;94993.77;;;24.97;32.10
6851;BME280;3464;42.728;23.296;2022-09-19T11:09:59;94987.88;;;24.95;32.13
6851;BME280;3464;42.728;23.296;2022-09-19T11:12:41;94978.48;;;24.86;30.99
6851;BME280;3464;42.728;23.296;2022-09-19T11:15:20;94979.67;;;25.12;30.40
6851;BME280;3464;42.728;23.296;2022-09-19T11:18:03;94976.61;;;24.47;30.29
6851;BME280;3464;42.728;23.296;2022-09-19T11:20:34;94967.85;;;25.00;29.20
6851;BME280;3464;42.728;23.296;2022-09-19T11:28:36;94962.93;;;24.62;31.05
6851;BME280;3464;42.728;23.296;2022-09-19T11:31:14;94962.27;;;24.76;30.25
6851;BME280;3464;42.728;23.296;2022-09-19T11:33:40;94957.49;;;24.60;30.47
6851;BME280;3464;42.728;23.296;2022-09-19T11:36:28;94961.58;;;24.21;30.85
6851;BME280;3464;42.728;23.296;2022-09-19T11:39:01;94948.51;;;24.59;30.44
6851;BME280;3464;42.728;23.296;2022-09-19T11:41:59;94945.80;;;24.79;28.92
6851;BME280;3464;42.728;23.296;2022-09-19T11:47:15;94946.05;;;25.31;28.63
6851;BME280;3464;42.728;23.296;2022-09-19T11:49:51;94944.70;;;24.84;27.23
6851;BME280;3464;42.728;23.296;2022-09-19T11:52:35;94936.58;;;24.67;25.22
6851;BME280;3464;42.728;23.296;2022-09-19T11:58:04;94927.70;;;24.64;23.01
6851;BME280;3464;42.728;23.296;2022-09-19T12:00:36;94918.74;;;24.71;22.86
6851;BME280;3464;42.728;23.296;2022-09-19T12:06:14;94922.64;;;25.43;25.56
6851;BME280;3464;42.728;23.296;2022-09-19T12:08:53;94918.00;;;25.87;25.46
6851;BME280;3464;42.728;23.296;2022-09-19T12:11:20;94901.03;;;25.99;25.87
6851;BME280;3464;42.728;23.296;2022-09-19T12:13:49;94897.19;;;25.76;24.71
6851;BME280;3464;42.728;23.296;2022-09-19T12:16:18;94898.81;;;26.00;24.81
6851;BME280;3464;42.728;23.296;2022-09-19T12:18:49;94890.91;;;26.18;24.27
6851;BME280;3464;42.728;23.296;2022-09-19T12:21:14;94890.12;;;26.45;24.20
6851;BME280;3464;42.728;23.296;2022-09-19T12:23:43;94893.75;;;25.91;25.76
6851;BME280;3464;42.728;23.296;2022-09-19T12:26:18;94902.73;;;26.07;25.76
6851;BME280;3464;42.728;23.296;2022-09-19T12:28:49;94904.27;;;26.54;24.96
6851;BME280;3464;42.728;23.296;2022-09-19T12:31:14;94906.45;;;26.46;25.74
6851;BME280;3464;42.728;23.296;2022-09-19T12:33:44;94906.55;;;26.30;26.88
6851;BME280;3464;42.728;23.296;2022-09-19T12:36:26;94898.09;;;26.35;25.13
6851;BME280;3464;42.728;23.296;2022-09-19T12:38:56;94886.98;;;26.63;24.88
6851;BME280;3464;42.728;23.296;2022-09-19T12:41:57;94888.83;;;26.17;25.98
6851;BME280;3464;42.728;23.296;2022-09-19T12:45:16;94887.07;;;26.25;25.19
6851;BME280;3464;42.728;23.296;2022-09-19T12:46:58;94881.81;;;26.48;24.83
6851;BME280;3464;42.728;23.296;2022-09-19T12:49:29;94882.52;;;26.29;24.50
6851;BME280;3464;42.728;23.296;2022-09-19T12:54:50;94871.21;;;26.53;24.36
6851;BME280;3464;42.728;23.296;2022-09-19T12:57:25;94883.19;;;26.68;24.92
6851;BME280;3464;42.728;23.296;2022-09-19T12:59:55;94873.45;;;27.01;25.04
6851;BME280;3464;42.728;23.296;2022-09-19T13:02:27;94883.03;;;26.35;25.86
6851;BME280;3464;42.728;23.296;2022-09-19T13:05:18;94887.21;;;26.00;26.50
6851;BME280;3464;42.728;23.296;2022-09-19T13:07:52;94879.51;;;26.22;26.18
6851;BME280;3464;42.728;23.296;2022-09-19T13:10:23;94880.38;;;26.29;26.38
6851;BME280;3464;42.728;23.296;2022-09-19T13:13:15;94867.97;;;26.35;26.53
6851;BME280;3464;42.728;23.296;2022-09-19T13:15:49;94865.75;;;26.43;26.66
6851;BME280;3464;42.728;23.296;2022-09-19T13:18:13;94876.17;;;26.13;27.12
6851;BME280;3464;42.728;23.296;2022-09-19T13:20:46;94859.80;;;26.92;26.54
6851;BME280;3464;42.728;23.296;2022-09-19T13:23:18;94861.25;;;26.47;26.97
6851;BME280;3464;42.728;23.296;2022-09-19T13:25:53;94860.00;;;26.82;26.41
6851;BME280;3464;42.728;23.296;2022-09-19T13:28:24;94848.82;;;26.45;26.72
6851;BME280;3464;42.728;23.296;2022-09-19T13:30:51;94855.78;;;26.87;26.02
6851;BME280;3464;42.728;23.296;2022-09-19T13:33:27;94848.92;;;26.73;26.36
6851;BME280;3464;42.728;23.296;2022-09-19T13:36:05;94854.89;;;26.94;26.15
6851;BME280;3464;42.728;23.296;2022-09-19T13:41:03;94843.42;;;26.92;26.64
6851;BME280;3464;42.728;23.296;2022-09-19T13:43:33;94842.16;;;26.98;27.09
6851;BME280;3464;42.728;23.296;2022-09-19T13:46:05;94844.09;;;27.02;26.84
6851;BME280;3464;42.728;23.296;2022-09-19T13:51:11;94837.03;;;27.26;26.02
6851;BME280;3464;42.728;23.296;2022-09-19T13:53:40;94837.58;;;27.37;25.54
6851;BME280;3464;42.728;23.296;2022-09-19T13:58:45;94837.47;;;27.18;25.98
6851;BME280;3464;42.728;23.296;2022-09-19T14:01:36;94834.70;;;27.07;26.36
6851;BME280;3464;42.728;23.296;2022-09-19T14:04:14;94844.38;;;27.11;26.69
6851;BME280;3464;42.728;23.296;2022-09-19T14:06:57;94836.34;;;27.22;26.63
6851;BME280;3464;42.728;23.296;2022-09-19T14:09:34;94831.77;;;27.27;26.64
6851;BME280;3464;42.728;23.296;2022-09-19T14:14:59;94832.11;;;27.21;27.15
6851;BME280;3464;42.728;23.296;2022-09-19T14:17:29;94832.55;;;27.42;26.99
6851;BME280;3464;42.728;23.296;2022-09-19T14:19:58;94836.06;;;27.34;27.29
6851;BME280;3464;42.728;23.296;2022-09-19T14:22:39;94831.09;;;27.03;27.61
6851;BME280;3464;42.728;23.296;2022-09-19T14:30:43;94823.68;;;26.98;27.55
6851;BME280;3464;42.728;23.296;2022-09-19T14:33:26;94825.89;;;27.10;27.26
6851;BME280;3464;42.728;23.296;2022-09-19T14:36:08;94825.86;;;27.11;27.66